Victory Mills, New York
Current Conditions -  °F | °C
As of 4:53 PM on Tuesday 25 Nov 2014 (Local Time) from KGFL Reporting Station
Clear Clear  
Wind Chill: 42°   Ceiling: Unl
Heat Index: 42°   Visibility: 10mi
Dew Point: 28°   Wind: 3mph
Humidity: 58%   Direction: 200°SSW
Pressure: 29.96"   Gusts: NA
Location:  43.09°N, 73.59°W
Report Text: KGFL 252153Z AUTO 20003KT 10SM CLR 06/M02 A2996 RMK AO2 SLP149 T00561022
Loading
Personal Weather Stations






























Interactive Weather Map New forecast layout! Learn more

10-Day Weather Forecast

Advertisements
Track Severe Weather on mobile